Time;durP1;ratioP1;P1;durP2;ratioP2;P2;SDS_P1;SDS_P2;PMS_P1;PMS_P2;Temp;Humidity;BMP_temperature;BMP_pressure;BME280_temperature;BME280_humidity;BME280_pressure;Samples;Min_cycle;Max_cycle;Signal;HPM_P1;HPM_P2
2023/08/06 00:01:18;;;;;;;0.68;0.30;;;;;;;27.25;50.33;100013.44;5067969;28;20045;-59
2023/08/06 00:03:46;;;;;;;1.02;0.40;;;;;;;27.25;50.49;100010.72;5067458;28;20052;-58
2023/08/06 00:06:13;;;;;;;1.10;0.30;;;;;;;27.25;50.29;100008.00;5064422;28;20481;-58
2023/08/06 00:08:40;;;;;;;0.93;0.32;;;;;;;27.25;50.50;100008.00;5062875;28;20048;-58
2023/08/06 00:11:08;;;;;;;0.55;0.30;;;;;;;27.25;50.38;100007.19;5070619;28;20045;-59
2023/08/06 00:13:35;;;;;;;0.80;0.40;;;;;;;27.25;50.25;100009.91;5066220;28;20041;-59
2023/08/06 00:16:12;;;;;;;0.95;0.28;;;;;;;27.25;50.22;100002.56;5064076;28;20032;-59
2023/08/06 00:18:40;;;;;;;0.55;0.28;;;;;;;27.26;49.92;100008.84;5064671;28;20056;-56
2023/08/06 00:21:08;;;;;;;0.68;0.20;;;;;;;27.25;50.27;100002.56;5066989;28;20400;-56
2023/08/06 00:23:35;;;;;;;0.68;0.28;;;;;;;27.26;50.18;100006.13;5066503;28;20051;-56
2023/08/06 00:26:03;;;;;;;0.90;0.30;;;;;;;27.25;50.20;100001.75;5065699;28;20408;-56
2023/08/06 00:28:30;;;;;;;1.38;0.40;;;;;;;27.25;50.05;99990.88;5067685;28;20047;-56
2023/08/06 00:30:57;;;;;;;0.60;0.28;;;;;;;27.24;50.00;99979.16;5065828;28;20059;-56
2023/08/06 00:33:25;;;;;;;0.77;0.35;;;;;;;27.24;50.09;99987.31;5065779;28;20051;-56
2023/08/06 00:35:53;;;;;;;0.38;0.20;;;;;;;27.22;50.13;99981.22;5064900;28;20052;-56
2023/08/06 00:38:20;;;;;;;0.90;0.35;;;;;;;27.24;50.44;99987.31;5067877;28;20408;-56
2023/08/06 00:40:48;;;;;;;0.60;0.20;;;;;;;27.24;50.22;99989.19;5067058;28;20055;-56
2023/08/06 00:43:16;;;;;;;0.65;0.32;;;;;;;27.22;50.27;99978.50;5065805;28;20047;-56
2023/08/06 00:45:44;;;;;;;1.27;0.80;;;;;;;27.22;50.23;99980.41;5065152;28;20496;-56
2023/08/06 00:48:11;;;;;;;1.33;0.30;;;;;;;27.22;50.24;99977.69;5066505;28;20515;-58
2023/08/06 00:50:38;;;;;;;0.60;0.30;;;;;;;27.23;50.40;99982.09;5066697;28;20106;-59
2023/08/06 00:53:06;;;;;;;0.70;0.25;;;;;;;27.23;50.32;99976.66;5065667;28;20060;-59
2023/08/06 00:55:34;;;;;;;0.30;0.10;;;;;;;27.23;50.32;99979.38;5064994;28;20041;-59
2023/08/06 00:58:02;;;;;;;0.50;0.30;;;;;;;27.22;50.04;99974.97;5067626;28;20048;-59
2023/08/06 01:00:29;;;;;;;0.95;0.65;;;;;;;27.22;50.21;99969.53;5066257;28;20040;-59
2023/08/06 01:02:57;;;;;;;1.33;0.20;;;;;;;27.22;50.05;99964.94;5065515;28;20044;-59
2023/08/06 01:05:25;;;;;;;1.13;0.52;;;;;;;27.21;50.35;99968.69;5065071;28;20041;-58
2023/08/06 01:07:55;;;;;;;0.45;0.20;;;;;;;27.22;50.27;99969.53;5065828;28;20497;-58
2023/08/06 01:10:43;;;;;;;1.00;0.25;;;;;;;27.21;50.14;99968.69;5062097;28;20048;-58
2023/08/06 01:13:28;;;;;;;0.75;0.30;;;;;;;27.22;49.98;99972.25;5064240;28;20405;-59
2023/08/06 01:15:59;;;;;;;0.45;0.20;;;;;;;27.21;50.42;99976.00;5065812;28;20048;-58
2023/08/06 01:18:26;;;;;;;1.08;0.30;;;;;;;27.22;50.06;99974.97;5064485;28;20396;-58
2023/08/06 01:20:54;;;;;;;1.02;0.40;;;;;;;27.20;50.10;99977.91;5062423;28;20056;-58
2023/08/06 01:23:23;;;;;;;0.98;0.40;;;;;;;27.20;50.18;99987.94;5068550;28;20049;-58
2023/08/06 01:25:54;;;;;;;0.55;0.30;;;;;;;27.20;50.10;99972.47;5065302;28;20390;-58
2023/08/06 01:28:33;;;;;;;0.35;0.17;;;;;;;27.20;50.33;99963.47;5069489;28;20048;-56
2023/08/06 01:31:04;;;;;;;0.70;0.30;;;;;;;27.20;50.26;99963.47;5068956;28;20485;-56
2023/08/06 01:33:33;;;;;;;0.57;0.30;;;;;;;27.20;50.27;99958.03;5070993;28;20507;-56
2023/08/06 01:36:02;;;;;;;1.23;0.40;;;;;;;27.20;50.11;99958.03;5068019;28;20044;-56
2023/08/06 01:38:31;;;;;;;1.48;0.50;;;;;;;27.20;50.30;99964.31;5067699;28;20060;-58
2023/08/06 01:40:59;;;;;;;0.73;0.30;;;;;;;27.20;50.02;99963.47;5068534;28;20415;-59
2023/08/06 01:43:26;;;;;;;0.57;0.17;;;;;;;27.19;50.00;99959.09;5070643;28;20041;-59
2023/08/06 01:45:53;;;;;;;0.50;0.25;;;;;;;27.19;50.21;99953.66;5068099;28;20052;-58
2023/08/06 01:48:21;;;;;;;0.65;0.30;;;;;;;27.19;50.20;99954.50;5067526;28;20053;-58
2023/08/06 01:50:49;;;;;;;0.70;0.28;;;;;;;27.19;49.98;99953.66;5070211;28;20055;-58
2023/08/06 01:53:17;;;;;;;0.70;0.30;;;;;;;27.18;50.22;99947.38;5070471;28;20412;-59
2023/08/06 01:55:51;;;;;;;0.30;0.20;;;;;;;27.19;50.15;99956.38;5069664;28;20048;-58
2023/08/06 01:58:19;;;;;;;0.88;0.30;;;;;;;27.18;50.17;99957.41;5065278;28;20052;-56
2023/08/06 02:00:46;;;;;;;0.55;0.28;;;;;;;27.18;50.02;99949.25;5066123;28;20059;-56
2023/08/06 02:03:13;;;;;;;0.47;0.13;;;;;;;27.17;50.03;99951.13;5073924;28;20055;-56
2023/08/06 02:05:41;;;;;;;1.08;0.40;;;;;;;27.17;50.08;99953.00;5068755;28;20041;-56
2023/08/06 02:08:08;;;;;;;1.27;0.40;;;;;;;27.17;50.29;99948.41;5065557;28;20048;-56
2023/08/06 02:10:36;;;;;;;0.80;0.40;;;;;;;27.17;50.19;99937.53;5077069;28;20053;-56
2023/08/06 02:13:03;;;;;;;0.90;0.40;;;;;;;27.17;50.36;99944.84;5064701;28;20073;-56
2023/08/06 02:15:30;;;;;;;0.73;0.30;;;;;;;27.16;50.29;99933.16;5068507;28;20040;-56
2023/08/06 02:17:58;;;;;;;0.70;0.30;;;;;;;27.16;49.85;99924.19;5062211;28;20067;-58
2023/08/06 02:20:26;;;;;;;0.77;0.38;;;;;;;27.16;50.17;99927.72;5065394;28;20399;-59
2023/08/06 02:22:54;;;;;;;0.55;0.28;;;;;;;27.16;50.13;99930.44;5068196;28;20053;-58
2023/08/06 02:25:22;;;;;;;0.47;0.20;;;;;;;27.15;50.04;99920.63;5068345;28;20041;-58
2023/08/06 02:27:49;;;;;;;1.83;0.40;;;;;;;27.16;50.04;99916.84;5066136;28;20492;-58
2023/08/06 02:30:16;;;;;;;0.70;0.25;;;;;;;27.17;49.84;99920.41;5065606;28;20060;-59
2023/08/06 02:32:44;;;;;;;0.88;0.30;;;;;;;27.15;50.21;99920.63;5069784;28;20055;-59
2023/08/06 02:35:11;;;;;;;0.60;0.25;;;;;;;27.16;49.92;99910.59;5067106;28;20060;-59
2023/08/06 02:37:39;;;;;;;0.47;0.20;;;;;;;27.15;49.88;99911.63;5066052;28;20045;-58
2023/08/06 02:40:07;;;;;;;0.57;0.20;;;;;;;27.15;50.14;99912.47;5066755;28;20048;-58
2023/08/06 02:42:34;;;;;;;0.50;0.22;;;;;;;27.15;49.92;99903.50;5068537;28;20466;-58
2023/08/06 02:45:02;;;;;;;0.43;0.20;;;;;;;27.15;50.01;99912.47;5061613;28;20052;-58
2023/08/06 02:47:31;;;;;;;0.63;0.30;;;;;;;27.16;49.87;99905.16;5061475;28;20057;-58
2023/08/06 02:49:59;;;;;;;0.47;0.25;;;;;;;27.15;50.00;99903.50;5068303;28;20057;-58
2023/08/06 02:52:26;;;;;;;1.13;0.55;;;;;;;27.15;50.12;99911.63;5067984;28;20048;-58
2023/08/06 02:54:54;;;;;;;1.38;0.50;;;;;;;27.15;49.95;99914.34;5066964;28;20057;-58
2023/08/06 02:57:21;;;;;;;0.75;0.25;;;;;;;27.15;49.89;99914.34;5063916;28;20044;-56
2023/08/06 02:59:51;;;;;;;2.63;0.47;;;;;;;27.14;50.16;99908.06;5051881;28;20044;-56
2023/08/06 03:02:21;;;;;;;0.70;0.20;;;;;;;27.14;49.89;99904.50;5067469;28;20455;-56
2023/08/06 03:05:09;;;;;;;0.75;0.30;;;;;;;27.14;50.25;99907.22;5059428;28;20056;-56
2023/08/06 03:07:41;;;;;;;0.63;0.30;;;;;;;27.14;50.08;99899.06;5059455;28;20385;-56
2023/08/06 03:10:14;;;;;;;1.17;0.30;;;;;;;27.14;49.80;99896.34;5062217;28;20057;-56
2023/08/06 03:12:43;;;;;;;0.73;0.22;;;;;;;27.13;50.06;99894.69;5060177;28;20060;-56
2023/08/06 03:15:11;;;;;;;0.50;0.25;;;;;;;27.13;49.87;99887.38;5060533;28;20053;-56
2023/08/06 03:17:40;;;;;;;0.80;0.15;;;;;;;27.13;49.86;99881.94;5067159;28;20146;-58
2023/08/06 03:20:09;;;;;;;1.00;0.32;;;;;;;27.13;49.74;99883.81;5066270;28;20508;-58
2023/08/06 03:22:37;;;;;;;0.50;0.30;;;;;;;27.11;50.12;99887.59;5060358;28;20057;-58
2023/08/06 03:25:06;;;;;;;0.35;0.13;;;;;;;27.13;49.78;99889.25;5060358;28;20064;-59
2023/08/06 03:27:35;;;;;;;0.77;0.35;;;;;;;27.13;50.11;99886.53;5067605;28;20044;-56
2023/08/06 03:30:02;;;;;;;1.02;0.30;;;;;;;27.11;50.10;99870.47;5067325;28;20059;-56
2023/08/06 03:32:31;;;;;;;0.93;0.38;;;;;;;27.12;50.14;99877.56;5066255;28;20052;-56
2023/08/06 03:34:59;;;;;;;1.30;0.32;;;;;;;27.12;50.07;99874.84;5065927;28;20064;-56
2023/08/06 03:37:29;;;;;;;0.68;0.30;;;;;;;27.12;50.00;99883.00;5066831;28;20500;-58
2023/08/06 03:39:56;;;;;;;0.50;0.28;;;;;;;27.11;49.83;99874.00;5066851;28;20059;-58
2023/08/06 03:42:24;;;;;;;0.98;0.30;;;;;;;27.13;50.14;99881.09;5065504;28;20053;-59
2023/08/06 03:44:51;;;;;;;1.02;0.43;;;;;;;27.11;50.10;99884.88;5068038;28;20048;-59
2023/08/06 03:47:18;;;;;;;2.05;0.43;;;;;;;27.11;50.00;99889.47;5068459;28;20044;-58
2023/08/06 03:49:49;;;;;;;0.75;0.30;;;;;;;27.11;50.05;99884.03;5065739;28;20056;-59
2023/08/06 03:52:17;;;;;;;0.52;0.22;;;;;;;27.10;49.99;99887.78;5065124;28;20049;-59
2023/08/06 03:54:45;;;;;;;0.70;0.30;;;;;;;27.10;49.82;99880.50;5068057;28;20044;-59
2023/08/06 03:57:12;;;;;;;1.83;0.40;;;;;;;27.10;50.12;99875.06;5066727;28;20052;-58
2023/08/06 03:59:40;;;;;;;1.02;0.30;;;;;;;27.10;49.97;99877.78;5065234;28;20056;-58
2023/08/06 04:02:08;;;;;;;0.60;0.20;;;;;;;27.09;49.95;99884.19;5062981;28;20056;-58
2023/08/06 04:04:36;;;;;;;0.55;0.20;;;;;;;27.09;50.05;99884.19;5066242;28;20056;-58
2023/08/06 04:07:04;;;;;;;1.17;0.35;;;;;;;27.09;50.09;99884.19;5066596;28;20045;-56
2023/08/06 04:09:31;;;;;;;0.65;0.30;;;;;;;27.09;50.12;99880.66;5066400;28;20060;-56
2023/08/06 04:12:01;;;;;;;0.73;0.38;;;;;;;27.08;50.13;99878.97;5068590;28;20057;-56
2023/08/06 04:14:30;;;;;;;1.00;0.30;;;;;;;27.08;49.82;99881.69;5065942;28;20045;-56
2023/08/06 04:16:57;;;;;;;0.93;0.40;;;;;;;27.08;50.11;99885.25;5064969;28;20385;-56
2023/08/06 04:19:25;;;;;;;0.60;0.20;;;;;;;27.07;50.03;99889.00;5066310;28;20432;-56
2023/08/06 04:21:52;;;;;;;1.15;0.30;;;;;;;27.08;49.98;99890.69;5062702;28;20053;-56
2023/08/06 04:24:20;;;;;;;0.88;0.20;;;;;;;27.08;50.08;99887.97;5058999;28;20041;-56
2023/08/06 04:26:47;;;;;;;0.22;0.10;;;;;;;27.08;49.87;99885.25;5057718;28;20045;-58
2023/08/06 04:29:15;;;;;;;0.73;0.30;;;;;;;27.07;49.97;99875.44;5063579;28;20052;-58
2023/08/06 04:31:43;;;;;;;0.75;0.22;;;;;;;27.08;49.98;99866.22;5067882;28;20052;-58
2023/08/06 04:34:11;;;;;;;1.40;0.40;;;;;;;27.07;49.88;99866.44;5074724;28;20057;-58
2023/08/06 04:36:39;;;;;;;0.77;0.30;;;;;;;27.06;50.02;99873.75;5062352;28;20067;-58
2023/08/06 04:39:10;;;;;;;0.57;0.25;;;;;;;27.07;50.17;99882.75;5066136;28;20064;-59
2023/08/06 04:41:37;;;;;;;1.25;0.47;;;;;;;27.07;50.18;99880.03;5064435;28;20049;-59
2023/08/06 04:44:05;;;;;;;0.98;0.32;;;;;;;27.07;50.11;99871.88;5066160;28;20052;-58
2023/08/06 04:46:33;;;;;;;0.60;0.20;;;;;;;27.07;49.74;99878.16;5066271;28;20048;-58
2023/08/06 04:49:00;;;;;;;1.02;0.30;;;;;;;27.07;49.83;99885.47;5065684;28;20592;-58
2023/08/06 04:51:27;;;;;;;2.53;0.60;;;;;;;27.06;50.05;99890.06;5064260;28;20049;-58
2023/08/06 04:53:57;;;;;;;1.15;0.30;;;;;;;27.08;49.79;99906.97;5067842;28;20059;-58
2023/08/06 04:56:24;;;;;;;0.90;0.38;;;;;;;27.06;49.74;99903.66;5066951;28;20048;-58
2023/08/06 04:58:51;;;;;;;1.27;0.30;;;;;;;27.06;49.81;99906.38;5068448;28;20036;-56
2023/08/06 05:01:19;;;;;;;0.63;0.30;;;;;;;27.06;49.70;99898.22;5068551;28;20064;-56
2023/08/06 05:03:47;;;;;;;0.68;0.20;;;;;;;27.05;50.05;99903.84;5072049;28;20056;-56
2023/08/06 05:06:15;;;;;;;0.82;0.40;;;;;;;27.05;49.68;99899.22;5071067;28;20048;-55
2023/08/06 05:08:42;;;;;;;0.82;0.30;;;;;;;27.05;49.94;99893.81;5070516;28;20052;-56
2023/08/06 05:11:09;;;;;;;0.95;0.30;;;;;;;27.04;49.88;99892.13;5066019;28;20044;-56
2023/08/06 05:13:37;;;;;;;0.85;0.20;;;;;;;27.05;49.87;99890.25;5071207;28;20052;-56
2023/08/06 05:16:04;;;;;;;0.80;0.32;;;;;;;27.05;50.04;99887.53;5070778;28;20057;-56
2023/08/06 05:18:34;;;;;;;0.70;0.30;;;;;;;27.04;49.70;99889.41;5069207;28;20049;-56
2023/08/06 05:21:01;;;;;;;1.27;0.30;;;;;;;27.05;49.67;99893.81;5068214;28;20052;-56
2023/08/06 05:23:28;;;;;;;0.80;0.38;;;;;;;27.04;49.95;99880.44;5071178;28;20048;-56
2023/08/06 05:25:56;;;;;;;0.60;0.25;;;;;;;27.04;49.54;99892.13;5070456;28;20500;-56
2023/08/06 05:28:23;;;;;;;0.73;0.30;;;;;;;27.03;49.67;99879.59;5069593;28;20404;-56
2023/08/06 05:30:50;;;;;;;0.50;0.30;;;;;;;27.04;49.79;99877.72;5068055;28;20056;-56
2023/08/06 05:33:18;;;;;;;0.75;0.30;;;;;;;27.03;49.65;99879.59;5070873;28;20055;-56
2023/08/06 05:35:45;;;;;;;0.70;0.22;;;;;;;27.02;49.74;99880.66;5070089;28;20056;-56
2023/08/06 05:38:12;;;;;;;0.77;0.25;;;;;;;27.03;49.98;99885.03;5069858;28;20044;-58
2023/08/06 05:40:40;;;;;;;0.50;0.20;;;;;;;27.05;49.55;99884.81;5069656;28;20053;-59
2023/08/06 05:43:07;;;;;;;0.60;0.20;;;;;;;27.03;49.76;99882.31;5070956;28;20045;-58
2023/08/06 05:45:35;;;;;;;0.75;0.30;;;;;;;27.03;49.56;99873.34;5070179;28;20051;-59
2023/08/06 05:48:02;;;;;;;0.50;0.20;;;;;;;27.03;49.55;99884.19;5069267;28;20043;-56
2023/08/06 05:50:30;;;;;;;0.63;0.20;;;;;;;27.03;50.03;99882.31;5067570;28;20051;-56
2023/08/06 05:52:57;;;;;;;1.77;0.40;;;;;;;27.03;49.70;99884.19;5070447;28;20051;-56
2023/08/06 05:55:28;;;;;;;1.33;0.43;;;;;;;27.03;49.57;99895.06;5069657;28;20054;-56
2023/08/06 05:57:55;;;;;;;1.40;0.20;;;;;;;27.02;49.71;99896.94;5068878;28;20049;-56
2023/08/06 06:00:22;;;;;;;1.38;0.45;;;;;;;27.03;49.77;99903.22;5067926;28;20052;-56
2023/08/06 06:02:50;;;;;;;0.70;0.20;;;;;;;27.02;49.80;99905.09;5070398;28;20040;-56
2023/08/06 06:05:17;;;;;;;1.00;0.30;;;;;;;27.03;49.62;99916.81;5069393;28;20048;-56
2023/08/06 06:07:44;;;;;;;0.55;0.30;;;;;;;27.03;49.61;99925.78;5068485;28;20519;-56
2023/08/06 06:10:12;;;;;;;0.55;0.28;;;;;;;27.03;49.77;99928.50;5066393;28;20055;-56
2023/08/06 06:12:41;;;;;;;0.95;0.22;;;;;;;27.02;49.67;99918.69;5070153;28;20052;-56
2023/08/06 06:15:08;;;;;;;0.75;0.20;;;;;;;27.03;49.71;99923.06;5069902;28;20051;-56
2023/08/06 06:17:36;;;;;;;0.60;0.30;;;;;;;27.02;49.95;99923.25;5068883;28;20049;-56
2023/08/06 06:20:04;;;;;;;0.20;0.13;;;;;;;27.01;49.72;99927.84;5067653;28;20041;-56
2023/08/06 06:22:31;;;;;;;0.93;0.35;;;;;;;27.02;49.89;99921.41;5069959;28;20060;-58
2023/08/06 06:24:59;;;;;;;0.60;0.32;;;;;;;27.01;49.82;99922.41;5071774;28;20045;-58
2023/08/06 06:27:26;;;;;;;0.40;0.10;;;;;;;27.01;50.01;99935.16;5068187;28;20044;-56
2023/08/06 06:29:54;;;;;;;0.57;0.20;;;;;;;27.01;49.99;99924.31;5067494;28;20056;-56
2023/08/06 06:32:22;;;;;;;0.75;0.35;;;;;;;27.01;49.76;99940.59;5069943;28;20427;-56
2023/08/06 06:34:49;;;;;;;1.48;0.40;;;;;;;27.00;50.04;99931.63;5068633;28;20052;-56
2023/08/06 06:37:16;;;;;;;1.27;0.30;;;;;;;27.01;49.80;99935.16;5067766;28;20052;-58
2023/08/06 06:39:44;;;;;;;0.80;0.30;;;;;;;27.00;49.64;99947.91;5067326;28;20049;-58
2023/08/06 06:42:11;;;;;;;0.55;0.20;;;;;;;27.00;49.80;99956.06;5069852;28;20377;-58
2023/08/06 06:44:44;;;;;;;0.77;0.28;;;;;;;26.99;50.01;99951.69;5067111;28;20109;-58
2023/08/06 06:47:11;;;;;;;0.85;0.30;;;;;;;27.00;50.08;99958.78;5067365;28;20045;-56
2023/08/06 06:49:39;;;;;;;0.85;0.32;;;;;;;27.00;50.10;99957.94;5067749;28;20045;-56
2023/08/06 06:52:06;;;;;;;0.10;0.10;;;;;;;27.00;49.92;99953.34;5069750;28;20049;-56
2023/08/06 06:54:34;;;;;;;0.45;0.20;;;;;;;26.99;49.90;99951.69;5061204;28;20052;-56
2023/08/06 06:57:01;;;;;;;0.90;0.40;;;;;;;26.98;49.94;99952.72;5067111;28;20049;-59
2023/08/06 06:59:28;;;;;;;0.95;0.30;;;;;;;26.99;49.83;99953.56;5067520;28;20045;-58
2023/08/06 07:01:56;;;;;;;0.75;0.20;;;;;;;26.99;50.16;99942.69;5069170;28;20052;-58
2023/08/06 07:04:23;;;;;;;0.98;0.20;;;;;;;26.99;49.99;99951.69;5067776;28;20416;-58
2023/08/06 07:06:52;;;;;;;0.43;0.20;;;;;;;26.99;49.68;99956.28;5067083;28;20044;-58
2023/08/06 07:09:19;;;;;;;1.17;0.40;;;;;;;26.99;50.10;99959.00;5067412;28;20045;-58
2023/08/06 07:11:46;;;;;;;0.68;0.22;;;;;;;26.99;50.02;99956.28;5069313;28;20048;-58
2023/08/06 07:14:14;;;;;;;0.52;0.15;;;;;;;26.98;50.00;99952.72;5067478;28;20041;-58
2023/08/06 07:16:43;;;;;;;0.65;0.40;;;;;;;26.98;49.75;99952.72;5066680;28;20048;-57
2023/08/06 07:19:10;;;;;;;0.80;0.40;;;;;;;26.98;49.84;99952.72;5067310;28;20397;-58
2023/08/06 07:21:38;;;;;;;1.50;0.50;;;;;;;26.99;49.63;99959.00;5068459;28;20060;-59
2023/08/06 07:24:05;;;;;;;0.47;0.20;;;;;;;26.99;49.79;99957.13;5067353;28;20523;-58
2023/08/06 07:26:32;;;;;;;0.77;0.30;;;;;;;26.99;49.72;99953.56;5066860;28;20480;-59
2023/08/06 07:28:59;;;;;;;0.60;0.20;;;;;;;27.00;49.74;99955.22;5067505;28;20404;-59
2023/08/06 07:31:27;;;;;;;0.30;0.20;;;;;;;26.98;49.87;99955.44;5068536;28;20064;-58
2023/08/06 07:33:54;;;;;;;0.73;0.30;;;;;;;26.99;49.91;99959.00;5066905;28;20048;-58
2023/08/06 07:36:22;;;;;;;0.55;0.22;;;;;;;26.99;49.87;99959.81;5066188;28;20123;-59
2023/08/06 07:38:55;;;;;;;0.52;0.20;;;;;;;26.99;49.88;99962.53;5067802;28;20047;-56
2023/08/06 07:41:23;;;;;;;0.85;0.38;;;;;;;26.99;49.98;99969.88;5068374;28;20048;-56
2023/08/06 07:43:50;;;;;;;0.88;0.28;;;;;;;27.00;49.90;99966.09;5066925;28;20071;-59
2023/08/06 07:46:18;;;;;;;0.57;0.28;;;;;;;27.00;50.01;99968.81;5065147;28;20056;-56
2023/08/06 07:48:45;;;;;;;0.68;0.20;;;;;;;26.99;49.69;99969.88;5067850;28;20404;-58
2023/08/06 07:51:12;;;;;;;1.35;0.40;;;;;;;26.99;49.98;99965.25;5068429;28;20048;-58
2023/08/06 07:53:40;;;;;;;0.68;0.28;;;;;;;26.99;49.87;99970.69;5066758;28;20511;-58
2023/08/06 07:56:07;;;;;;;0.70;0.20;;;;;;;26.99;49.60;99975.28;5065030;28;20045;-59
2023/08/06 07:58:34;;;;;;;0.32;0.13;;;;;;;26.99;49.62;99980.72;5067537;28;20040;-58
2023/08/06 08:01:02;;;;;;;1.08;0.40;;;;;;;26.99;49.62;99987.00;5066288;28;20053;-56
2023/08/06 08:03:32;;;;;;;0.47;0.20;;;;;;;26.99;49.60;99987.00;5066804;28;20657;-58
2023/08/06 08:05:59;;;;;;;1.33;0.30;;;;;;;27.01;49.69;99989.50;5064585;28;20049;-59
2023/08/06 08:08:27;;;;;;;0.57;0.28;;;;;;;27.00;49.38;99985.09;5066706;28;20041;-56
2023/08/06 08:10:55;;;;;;;0.70;0.30;;;;;;;27.00;49.60;99980.50;5064235;28;20412;-56
2023/08/06 08:13:22;;;;;;;0.32;0.20;;;;;;;27.00;49.33;99987.81;5066671;28;20512;-58
2023/08/06 08:15:50;;;;;;;1.00;0.40;;;;;;;27.00;49.47;99974.25;5064401;28;20045;-56
2023/08/06 08:18:17;;;;;;;0.32;0.13;;;;;;;27.00;49.32;99969.66;5067521;28;20041;-56
2023/08/06 08:20:44;;;;;;;0.73;0.28;;;;;;;27.00;49.49;99979.69;5068036;28;20052;-58
2023/08/06 08:23:12;;;;;;;1.13;0.43;;;;;;;26.99;49.32;99976.13;5066299;28;20048;-56
2023/08/06 08:25:39;;;;;;;1.13;0.38;;;;;;;27.00;49.54;99957.94;5064219;28;20064;-58
2023/08/06 08:28:07;;;;;;;0.57;0.30;;;;;;;26.99;49.28;99954.41;5067164;28;20412;-56
2023/08/06 08:30:34;;;;;;;1.27;0.30;;;;;;;27.00;49.36;99961.50;5067818;28;20048;-56
2023/08/06 08:33:02;;;;;;;0.57;0.28;;;;;;;27.00;49.37;99952.50;5065987;28;20040;-56
2023/08/06 08:35:29;;;;;;;0.82;0.38;;;;;;;27.00;49.49;99949.78;5064154;28;20049;-58
2023/08/06 08:37:57;;;;;;;1.48;0.45;;;;;;;27.00;49.32;99950.63;5067184;28;20048;-58
2023/08/06 08:40:37;;;;;;;0.70;0.30;;;;;;;27.01;49.39;99956.91;5066506;28;20055;-58
2023/08/06 08:43:05;;;;;;;0.90;0.40;;;;;;;27.00;49.45;99947.91;5065882;28;20052;-58
2023/08/06 08:45:39;;;;;;;0.88;0.35;;;;;;;27.01;49.34;99956.91;5064765;28;20045;-59
2023/08/06 08:48:06;;;;;;;0.73;0.32;;;;;;;27.01;49.51;99956.91;5067971;28;20051;-56
2023/08/06 08:50:34;;;;;;;0.70;0.30;;;;;;;27.01;49.51;99957.72;5066178;28;20047;-55
2023/08/06 08:53:01;;;;;;;0.52;0.20;;;;;;;27.01;49.57;99955.00;5065630;28;20419;-58
2023/08/06 08:55:29;;;;;;;0.70;0.30;;;;;;;27.01;49.00;99955.00;5068921;28;20048;-55
2023/08/06 08:57:57;;;;;;;0.93;0.30;;;;;;;27.01;49.33;99946.03;5067439;28;20507;-58
2023/08/06 09:00:25;;;;;;;0.80;0.32;;;;;;;27.01;49.36;99946.88;5065872;28;20051;-56
2023/08/06 09:02:53;;;;;;;0.88;0.30;;;;;;;27.01;49.29;99941.44;5065271;28;20519;-55
2023/08/06 09:05:23;;;;;;;0.75;0.35;;;;;;;27.02;49.33;99954.00;5065718;28;20511;-58
2023/08/06 09:07:52;;;;;;;0.93;0.30;;;;;;;27.01;49.24;99946.88;5067393;28;20052;-58
2023/08/06 09:10:23;;;;;;;0.80;0.35;;;;;;;27.02;49.41;99958.56;5065955;28;20044;-56
2023/08/06 09:12:53;;;;;;;0.75;0.47;;;;;;;27.03;49.34;99957.53;5064113;28;20398;-56
2023/08/06 09:15:23;;;;;;;0.77;0.30;;;;;;;27.02;49.38;99962.16;5067325;28;20048;-58
2023/08/06 09:17:54;;;;;;;1.67;0.50;;;;;;;27.02;49.42;99958.56;5067492;28;20131;-57
2023/08/06 09:20:22;;;;;;;0.90;0.38;;;;;;;27.02;49.32;99964.88;5065509;28;20400;-58
2023/08/06 09:22:52;;;;;;;0.70;0.30;;;;;;;27.04;49.13;99970.09;5064035;28;20068;-56
2023/08/06 09:25:28;;;;;;;1.02;0.40;;;;;;;27.03;49.23;99987.44;5064446;28;20053;-56
2023/08/06 09:27:55;;;;;;;1.40;0.47;;;;;;;27.02;49.38;99992.03;5065771;28;20052;-56
2023/08/06 09:30:39;;;;;;;0.60;0.30;;;;;;;27.02;49.43;99986.59;5059753;28;20049;-56
2023/08/06 09:33:15;;;;;;;0.70;0.35;;;;;;;27.02;49.11;99983.88;5062383;28;20515;-56
2023/08/06 09:35:43;;;;;;;1.02;0.50;;;;;;;27.02;49.24;99981.16;5066181;28;20059;-56
2023/08/06 09:38:11;;;;;;;0.43;0.20;;;;;;;27.02;49.30;99981.16;5065433;28;20052;-58
2023/08/06 09:40:39;;;;;;;0.60;0.30;;;;;;;27.01;49.22;99979.47;5064492;28;20045;-58
2023/08/06 09:43:07;;;;;;;0.80;0.40;;;;;;;27.03;49.20;99973.84;5067170;28;20036;-58
2023/08/06 09:45:36;;;;;;;1.08;0.43;;;;;;;27.02;49.08;99974.88;5069443;28;20407;-58
2023/08/06 09:48:08;;;;;;;0.80;0.25;;;;;;;27.03;49.38;99971.13;5063415;28;20059;-58
2023/08/06 09:50:38;;;;;;;0.82;0.40;;;;;;;27.03;49.33;99974.69;5070537;28;20056;-58
2023/08/06 09:53:08;;;;;;;1.55;0.30;;;;;;;27.02;49.42;99967.59;5070438;28;20407;-59
2023/08/06 09:55:35;;;;;;;1.05;0.47;;;;;;;27.03;49.03;99968.41;5068943;28;20504;-58
2023/08/06 09:58:03;;;;;;;0.93;0.40;;;;;;;27.03;49.10;99974.69;5067368;28;20045;-58
2023/08/06 10:00:33;;;;;;;0.82;0.30;;;;;;;27.03;49.46;99971.97;5069524;28;20404;-58
2023/08/06 10:03:06;;;;;;;1.08;0.35;;;;;;;27.04;49.38;99972.78;5070233;28;20411;-59
2023/08/06 10:05:35;;;;;;;0.77;0.40;;;;;;;27.03;49.33;99971.13;5069209;28;20048;-59
2023/08/06 10:08:05;;;;;;;0.85;0.30;;;;;;;27.04;49.31;99967.38;5066758;28;20048;-56
2023/08/06 10:10:34;;;;;;;0.75;0.30;;;;;;;27.03;49.31;99961.09;5073537;28;20041;-56
2023/08/06 10:13:03;;;;;;;0.73;0.45;;;;;;;27.04;49.38;99957.34;5069974;28;20049;-56
2023/08/06 10:15:32;;;;;;;0.52;0.28;;;;;;;27.03;49.25;99961.09;5068723;28;20049;-56
2023/08/06 10:18:01;;;;;;;0.80;0.40;;;;;;;27.03;49.26;99963.81;5067479;28;20049;-58
2023/08/06 10:20:34;;;;;;;1.00;0.20;;;;;;;27.03;49.20;99958.38;5070014;28;20044;-59
2023/08/06 10:23:03;;;;;;;0.88;0.40;;;;;;;27.04;49.33;99965.47;5068565;28;20056;-58
2023/08/06 10:25:32;;;;;;;0.50;0.15;;;;;;;27.04;49.19;99961.94;5067559;28;20044;-58
2023/08/06 10:28:00;;;;;;;0.63;0.25;;;;;;;27.03;49.05;99950.22;5068649;28;20045;-55
2023/08/06 10:30:28;;;;;;;0.82;0.32;;;;;;;27.03;49.15;99960.25;5069852;28;20063;-56
2023/08/06 10:33:00;;;;;;;1.27;0.60;;;;;;;27.02;49.23;99954.00;5068455;28;20044;-55
2023/08/06 10:35:31;;;;;;;1.20;0.50;;;;;;;27.03;49.23;99952.13;5066315;28;20053;-56
2023/08/06 10:38:02;;;;;;;0.57;0.30;;;;;;;27.04;49.37;99961.94;5069807;28;20048;-56
2023/08/06 10:40:31;;;;;;;0.87;0.50;;;;;;;27.03;49.01;99966.53;5068773;28;20044;-56
2023/08/06 10:43:03;;;;;;;0.90;0.47;;;;;;;27.02;49.28;99956.72;5067940;28;20049;-56
2023/08/06 10:45:34;;;;;;;1.13;0.50;;;;;;;27.03;49.07;99952.13;5067308;28;20405;-56
2023/08/06 10:48:02;;;;;;;1.30;0.60;;;;;;;27.03;49.18;99950.22;5069829;28;20048;-58
2023/08/06 10:50:31;;;;;;;0.90;0.40;;;;;;;27.03;49.16;99952.13;5068278;28;20036;-59
2023/08/06 10:53:04;;;;;;;1.48;0.52;;;;;;;27.02;48.84;99947.69;5062193;28;20056;-58
2023/08/06 10:55:32;;;;;;;1.98;0.60;;;;;;;27.03;49.03;99942.09;5068700;28;20060;-58
2023/08/06 10:57:59;;;;;;;1.13;0.45;;;;;;;27.02;49.33;99940.41;5069309;28;20071;-56
2023/08/06 11:00:27;;;;;;;0.82;0.50;;;;;;;27.02;48.96;99943.13;5068018;28;20044;-56
2023/08/06 11:02:55;;;;;;;1.50;0.70;;;;;;;27.03;49.03;99939.38;5066642;28;20048;-56
2023/08/06 11:05:22;;;;;;;1.40;0.50;;;;;;;27.02;49.16;99948.56;5067976;28;20055;-56
2023/08/06 11:07:51;;;;;;;1.20;0.60;;;;;;;27.02;48.87;99934.97;5069445;28;20052;-58
2023/08/06 11:10:18;;;;;;;1.00;0.40;;;;;;;27.02;48.74;99936.84;5067786;28;20048;-58
2023/08/06 11:12:46;;;;;;;1.38;0.50;;;;;;;27.02;48.83;99944.97;5066207;28;20070;-58
2023/08/06 11:15:13;;;;;;;1.67;0.95;;;;;;;27.02;48.49;99945.84;5067996;28;20048;-59
2023/08/06 11:17:41;;;;;;;0.98;0.40;;;;;;;27.02;48.65;99940.41;5068954;28;20049;-58
2023/08/06 11:20:09;;;;;;;1.25;0.40;;;;;;;27.02;48.66;99939.56;5067342;28;20103;-58
2023/08/06 11:22:38;;;;;;;1.10;0.40;;;;;;;27.01;48.43;99941.44;5065644;28;20049;-58
2023/08/06 11:25:07;;;;;;;1.27;0.60;;;;;;;27.03;48.76;99941.25;5071388;28;20048;-58
2023/08/06 11:27:34;;;;;;;1.58;0.70;;;;;;;27.03;48.17;99936.66;5068757;28;20391;-56
2023/08/06 11:30:02;;;;;;;1.90;0.80;;;;;;;27.01;47.84;99936.00;5067256;28;20044;-56
2023/08/06 11:32:29;;;;;;;1.40;0.57;;;;;;;27.01;47.43;99930.56;5065281;28;20045;-56
2023/08/06 11:34:57;;;;;;;0.55;0.32;;;;;;;27.01;46.98;99936.00;5067889;28;20064;-56
2023/08/06 11:37:25;;;;;;;1.20;0.50;;;;;;;27.02;47.20;99932.25;5068747;28;20479;-59
2023/08/06 11:39:53;;;;;;;1.00;0.50;;;;;;;27.02;46.60;99936.84;5066875;28;20045;-58